Time;durP1;ratioP1;P1;durP2;ratioP2;P2;SDS_P1;SDS_P2;PMS_P1;PMS_P2;Temp;Humidity;BMP_temperature;BMP_pressure;BME280_temperature;BME280_humidity;BME280_pressure;Samples;Min_cycle;Max_cycle;Signal;HPM_P1;HPM_P2
2023/01/25 00:00:06;;;;;;;7.10;5.00;;;14.80;45.60;;;;;;5104435;27;45297;-65
2023/01/25 00:02:33;;;;;;;5.82;4.57;;;14.80;45.60;;;;;;5104467;27;45477;-66
2023/01/25 00:05:00;;;;;;;5.88;4.68;;;14.80;45.70;;;;;;5103400;27;46609;-66
2023/01/25 00:07:27;;;;;;;6.57;4.72;;;14.80;45.70;;;;;;5097316;27;45283;-66
2023/01/25 00:09:53;;;;;;;6.78;4.45;;;14.80;45.60;;;;;;5103853;27;45353;-65
2023/01/25 00:12:21;;;;;;;7.03;4.90;;;14.80;45.60;;;;;;5104417;27;45471;-66
2023/01/25 00:14:48;;;;;;;5.60;4.40;;;14.80;45.50;;;;;;5103167;27;46714;-66
2023/01/25 00:17:15;;;;;;;5.50;4.28;;;14.80;45.50;;;;;;5103698;27;45328;-66
2023/01/25 00:19:41;;;;;;;6.18;4.70;;;14.80;45.50;;;;;;5104411;27;45359;-65
2023/01/25 00:22:08;;;;;;;7.63;4.72;;;14.80;45.70;;;;;;5104415;27;45324;-65
2023/01/25 00:24:35;;;;;;;5.45;4.13;;;14.80;45.70;;;;;;5103569;27;46444;-66
2023/01/25 00:27:02;;;;;;;7.57;4.80;;;14.80;45.60;;;;;;5102562;27;45396;-66
2023/01/25 00:29:30;;;;;;;5.55;4.53;;;14.80;45.70;;;;;;5104294;27;45253;-65
2023/01/25 00:32:27;;;;;;;5.88;4.60;;;14.80;45.80;;;;;;5104104;27;45302;-65
2023/01/25 00:34:55;;;;;;;7.20;4.60;;;14.80;45.90;;;;;;5092580;27;48025;-66
2023/01/25 00:37:30;;;;;;;7.10;4.57;;;14.80;45.80;;;;;;5088998;27;45415;-65
2023/01/25 00:39:56;;;;;;;7.45;4.95;;;14.80;45.80;;;;;;5092810;27;45367;-66
2023/01/25 00:42:23;;;;;;;6.32;4.75;;;14.80;45.60;;;;;;5104076;27;45701;-66
2023/01/25 00:44:51;;;;;;;5.60;4.38;;;14.80;45.70;;;;;;5101335;27;47654;-65
2023/01/25 00:47:18;;;;;;;6.43;4.93;;;14.80;45.90;;;;;;5103262;27;45363;-65
2023/01/25 00:49:46;;;;;;;5.53;4.20;;;14.80;45.90;;;;;;5102877;27;45322;-66
2023/01/25 00:52:13;;;;;;;5.80;4.50;;;14.80;45.80;;;;;;5103830;27;45609;-66
2023/01/25 00:54:40;;;;;;;5.95;4.43;;;14.80;45.90;;;;;;5103747;27;47516;-65
2023/01/25 00:57:07;;;;;;;6.00;4.65;;;14.80;45.80;;;;;;5102858;27;45240;-66
2023/01/25 00:59:35;;;;;;;6.28;4.60;;;14.80;45.80;;;;;;5104260;27;45389;-66
2023/01/25 01:02:03;;;;;;;6.75;4.90;;;14.80;45.80;;;;;;5092540;27;45606;-66
2023/01/25 01:04:30;;;;;;;6.07;4.63;;;14.80;45.80;;;;;;5091808;27;47110;-66
2023/01/25 01:06:57;;;;;;;6.53;4.53;;;14.80;45.90;;;;;;5092096;27;45459;-66
2023/01/25 01:09:24;;;;;;;6.78;5.22;;;14.80;45.90;;;;;;5098089;27;45277;-66
2023/01/25 01:11:51;;;;;;;6.05;4.55;;;14.80;45.90;;;;;;5093617;27;45398;-67
2023/01/25 01:14:18;;;;;;;6.03;4.88;;;14.80;45.90;;;;;;5101898;27;45407;-66
2023/01/25 01:16:45;;;;;;;6.10;4.53;;;14.80;45.90;;;;;;5097819;27;45360;-65
2023/01/25 01:19:13;;;;;;;5.63;4.32;;;14.80;46.00;;;;;;5102697;27;45383;-66
2023/01/25 01:21:40;;;;;;;7.72;5.05;;;14.80;46.20;;;;;;5103719;27;45555;-66
2023/01/25 01:24:08;;;;;;;6.18;5.20;;;14.80;46.00;;;;;;5103128;27;48001;-65
2023/01/25 01:26:35;;;;;;;6.10;4.68;;;14.80;46.00;;;;;;5102842;27;45270;-65
2023/01/25 01:29:02;;;;;;;7.13;5.15;;;14.80;46.00;;;;;;5103352;27;45314;-66
2023/01/25 01:31:29;;;;;;;7.22;4.72;;;14.80;46.00;;;;;;5103235;27;45529;-66
2023/01/25 01:33:57;;;;;;;6.50;4.72;;;14.80;45.90;;;;;;5102229;27;47025;-66
2023/01/25 01:36:27;;;;;;;7.65;5.30;;;14.90;46.00;;;;;;5094957;27;45533;-66
2023/01/25 01:38:54;;;;;;;9.10;5.45;;;14.80;45.90;;;;;;5101460;27;45454;-65
2023/01/25 01:41:21;;;;;;;6.82;5.15;;;14.80;46.60;;;;;;5095489;27;45455;-66
2023/01/25 01:43:48;;;;;;;6.30;4.95;;;14.80;45.90;;;;;;5095981;27;47554;-66
2023/01/25 01:46:21;;;;;;;7.32;5.30;;;14.80;45.90;;;;;;5087776;27;45408;-66
2023/01/25 01:48:52;;;;;;;6.68;5.22;;;14.80;45.90;;;;;;5095056;27;45489;-66
2023/01/25 01:51:23;;;;;;;6.90;4.88;;;14.80;45.90;;;;;;5093294;27;45459;-66
2023/01/25 01:53:55;;;;;;;6.43;4.95;;;14.80;45.90;;;;;;5100532;27;45279;-66
2023/01/25 01:56:30;;;;;;;6.78;4.72;;;14.80;45.90;;;;;;5102470;27;45413;-66
2023/01/25 01:58:59;;;;;;;7.10;5.15;;;14.80;46.10;;;;;;5103279;27;45488;-66
2023/01/25 02:01:26;;;;;;;7.55;5.30;;;14.80;46.10;;;;;;5103111;27;45292;-66
2023/01/25 02:03:53;;;;;;;7.75;5.18;;;14.80;46.10;;;;;;5102120;27;46387;-66
2023/01/25 02:06:28;;;;;;;6.68;5.00;;;14.80;46.20;;;;;;5093992;27;45301;-66
2023/01/25 02:08:57;;;;;;;7.47;5.10;;;14.80;46.20;;;;;;5101941;27;45332;-66
2023/01/25 02:11:26;;;;;;;7.07;4.82;;;14.80;46.10;;;;;;5102493;27;45418;-65
2023/01/25 02:13:54;;;;;;;7.65;5.00;;;14.80;46.10;;;;;;5101020;27;46312;-65
2023/01/25 02:16:26;;;;;;;6.78;4.82;;;14.80;46.10;;;;;;5101822;27;45391;-66
2023/01/25 02:18:54;;;;;;;6.15;4.88;;;14.80;46.10;;;;;;5102285;27;45221;-66
2023/01/25 02:21:23;;;;;;;6.90;5.35;;;14.80;46.00;;;;;;5102849;27;45513;-65
2023/01/25 02:23:54;;;;;;;6.85;5.35;;;14.80;46.00;;;;;;5102556;27;47759;-65
2023/01/25 02:26:23;;;;;;;8.27;5.75;;;14.80;46.10;;;;;;5100752;27;45478;-65
2023/01/25 02:28:54;;;;;;;7.93;5.53;;;14.80;46.00;;;;;;5102907;27;45341;-66
2023/01/25 02:31:21;;;;;;;8.68;5.93;;;14.80;46.00;;;;;;5091647;27;45378;-66
2023/01/25 02:33:48;;;;;;;6.93;5.45;;;14.80;45.90;;;;;;5096525;27;47105;-67
2023/01/25 02:36:20;;;;;;;8.48;5.88;;;14.80;46.00;;;;;;5092667;27;45344;-66
2023/01/25 02:38:52;;;;;;;7.35;5.18;;;14.80;46.00;;;;;;5101230;27;45362;-66
2023/01/25 02:41:25;;;;;;;8.43;5.75;;;14.80;46.00;;;;;;5093648;27;45494;-66
2023/01/25 02:43:53;;;;;;;7.05;5.60;;;14.80;46.10;;;;;;5100119;27;47450;-66
2023/01/25 02:46:24;;;;;;;7.30;5.50;;;14.80;46.20;;;;;;5101619;27;45367;-65
2023/01/25 02:48:52;;;;;;;9.40;5.68;;;14.80;46.20;;;;;;5102603;27;45370;-66
2023/01/25 02:51:19;;;;;;;9.25;5.70;;;14.80;46.20;;;;;;5102738;27;45517;-66
2023/01/25 02:53:46;;;;;;;7.28;5.80;;;14.80;46.20;;;;;;5102341;27;46603;-67
2023/01/25 02:56:13;;;;;;;7.85;5.80;;;14.80;45.90;;;;;;5084125;27;45434;-66
2023/01/25 02:58:41;;;;;;;8.55;6.07;;;14.80;46.10;;;;;;5093615;27;45383;-65
2023/01/25 03:01:09;;;;;;;8.18;5.80;;;14.80;46.10;;;;;;5098727;27;45432;-66
2023/01/25 03:03:36;;;;;;;7.85;5.93;;;14.80;46.10;;;;;;5100541;27;45275;-66
2023/01/25 03:06:02;;;;;;;8.65;5.72;;;14.80;46.10;;;;;;5096734;27;45360;-66
2023/01/25 03:08:29;;;;;;;9.15;6.05;;;14.80;46.00;;;;;;5094173;27;45622;-65
2023/01/25 03:10:57;;;;;;;9.43;6.15;;;14.80;46.00;;;;;;5098383;27;45652;-66
2023/01/25 03:13:25;;;;;;;7.70;5.50;;;14.80;46.00;;;;;;5099509;27;45548;-66
2023/01/25 03:15:59;;;;;;;8.85;5.90;;;14.80;45.90;;;;;;5094218;27;45351;-67
2023/01/25 03:18:26;;;;;;;8.32;5.82;;;14.80;45.90;;;;;;5098028;27;45266;-65
2023/01/25 03:20:52;;;;;;;9.65;6.15;;;14.80;45.70;;;;;;5105592;27;45474;-65
2023/01/25 03:23:19;;;;;;;7.93;5.95;;;14.80;45.90;;;;;;5105491;27;45395;-66
2023/01/25 03:25:46;;;;;;;9.52;6.43;;;14.80;45.90;;;;;;5098211;27;45325;-65
2023/01/25 03:28:13;;;;;;;9.10;6.10;;;14.80;45.90;;;;;;5105321;27;45356;-67
2023/01/25 03:30:39;;;;;;;9.52;6.30;;;14.80;45.90;;;;;;5105126;27;45350;-66
2023/01/25 03:33:08;;;;;;;8.48;6.03;;;14.80;46.00;;;;;;5102453;27;47555;-65
2023/01/25 03:35:34;;;;;;;9.85;6.53;;;14.80;46.00;;;;;;5098642;27;45320;-66
2023/01/25 03:38:01;;;;;;;10.90;5.80;;;14.80;45.90;;;;;;5104065;27;45348;-66
2023/01/25 03:40:28;;;;;;;8.32;6.20;;;14.80;45.90;;;;;;5098265;27;45306;-65
2023/01/25 03:42:55;;;;;;;8.45;6.10;;;14.80;45.90;;;;;;5099904;27;46231;-65
2023/01/25 03:45:21;;;;;;;8.50;6.00;;;14.80;45.80;;;;;;5096694;27;45510;-66
2023/01/25 03:47:48;;;;;;;9.13;6.43;;;14.80;45.70;;;;;;5105163;27;45516;-66
2023/01/25 03:50:16;;;;;;;9.63;6.40;;;14.80;45.70;;;;;;5098742;27;45263;-66
2023/01/25 03:52:46;;;;;;;9.10;6.18;;;14.80;45.70;;;;;;5104013;27;45241;-66
2023/01/25 03:55:12;;;;;;;8.88;6.05;;;14.80;45.50;;;;;;5103660;27;46389;-65
2023/01/25 03:57:39;;;;;;;10.15;6.25;;;14.80;45.60;;;;;;5103631;27;45426;-67
2023/01/25 04:00:09;;;;;;;10.18;6.47;;;14.80;45.70;;;;;;5105302;27;45350;-66
2023/01/25 04:02:36;;;;;;;9.88;6.30;;;14.80;45.70;;;;;;5104376;27;45400;-66
2023/01/25 04:05:02;;;;;;;8.60;6.65;;;14.80;45.60;;;;;;5103251;27;45404;-66
2023/01/25 04:07:32;;;;;;;9.32;6.25;;;14.80;45.70;;;;;;5096564;27;45464;-66
2023/01/25 04:09:59;;;;;;;9.80;6.65;;;14.80;45.80;;;;;;5104729;27;45373;-67
2023/01/25 04:12:26;;;;;;;9.98;6.60;;;14.80;45.80;;;;;;5103149;27;46303;-66
2023/01/25 04:14:52;;;;;;;9.48;6.43;;;14.80;45.90;;;;;;5102821;27;45316;-65
2023/01/25 04:17:19;;;;;;;10.57;6.75;;;14.80;45.50;;;;;;5103679;27;45531;-66
2023/01/25 04:19:46;;;;;;;11.32;7.90;;;14.70;45.10;;;;;;5104643;27;45410;-66
2023/01/25 04:22:13;;;;;;;12.35;7.13;;;14.70;44.70;;;;;;5097205;27;47113;-66
2023/01/25 04:24:41;;;;;;;11.15;7.25;;;14.70;44.50;;;;;;5096150;27;45427;-66
2023/01/25 04:27:08;;;;;;;12.07;7.55;;;14.70;44.20;;;;;;5093303;27;45418;-66
2023/01/25 04:29:35;;;;;;;11.40;7.68;;;14.70;44.00;;;;;;5091755;27;45373;-66
2023/01/25 04:32:02;;;;;;;11.68;7.38;;;14.70;43.80;;;;;;5093735;27;46519;-66
2023/01/25 04:34:29;;;;;;;10.57;7.45;;;14.70;43.60;;;;;;5101206;27;45432;-66
2023/01/25 04:36:55;;;;;;;11.73;7.88;;;14.70;43.60;;;;;;5097383;27;45479;-66
2023/01/25 04:39:22;;;;;;;11.80;7.72;;;14.70;43.50;;;;;;5096212;27;45562;-66
2023/01/25 04:41:50;;;;;;;11.55;7.82;;;14.70;45.20;;;;;;5095213;27;46604;-66
2023/01/25 04:44:17;;;;;;;11.85;7.97;;;14.70;46.20;;;;;;5091358;27;45345;-65
2023/01/25 04:46:44;;;;;;;12.00;8.38;;;14.70;44.80;;;;;;5092346;27;45399;-66
2023/01/25 04:49:10;;;;;;;11.88;7.53;;;14.70;44.50;;;;;;5093242;27;45249;-66
2023/01/25 04:51:37;;;;;;;13.95;7.88;;;14.70;44.30;;;;;;5096855;27;46303;-66
2023/01/25 04:54:04;;;;;;;12.43;8.35;;;14.60;44.10;;;;;;5094426;27;45379;-66
2023/01/25 04:56:31;;;;;;;11.80;8.30;;;14.60;45.20;;;;;;5087239;27;45318;-66
2023/01/25 04:58:59;;;;;;;12.48;8.00;;;14.60;43.90;;;;;;5087804;27;45380;-66
2023/01/25 05:01:26;;;;;;;12.70;8.10;;;14.60;43.70;;;;;;5094007;27;47091;-66
2023/01/25 05:03:52;;;;;;;13.45;8.75;;;14.60;43.70;;;;;;5088376;27;45463;-66
2023/01/25 05:06:19;;;;;;;13.13;8.38;;;14.60;43.60;;;;;;5086829;27;45329;-66
2023/01/25 05:08:46;;;;;;;11.32;7.65;;;14.60;43.50;;;;;;5090073;27;45282;-66
2023/01/25 05:11:12;;;;;;;12.85;8.52;;;14.60;43.40;;;;;;5097855;27;47529;-66
2023/01/25 05:13:39;;;;;;;13.85;9.05;;;14.60;43.30;;;;;;5102530;27;45353;-66
2023/01/25 05:16:08;;;;;;;13.57;8.43;;;14.60;43.00;;;;;;5088747;27;45354;-66
2023/01/25 05:18:34;;;;;;;13.02;8.75;;;14.60;43.10;;;;;;5095495;27;45536;-66
2023/01/25 05:21:01;;;;;;;13.35;8.90;;;14.60;43.00;;;;;;5094893;27;45402;-66
2023/01/25 05:23:28;;;;;;;13.90;8.85;;;14.60;43.00;;;;;;5093418;27;45772;-66
2023/01/25 05:28:39;;;;;;;12.32;8.45;;;14.60;43.00;;;;;;5086360;27;45292;-66
2023/01/25 05:31:07;;;;;;;13.13;8.55;;;14.60;42.90;;;;;;5099483;27;47552;-66
2023/01/25 05:33:33;;;;;;;13.95;8.55;;;14.60;42.90;;;;;;5101712;27;45442;-66
2023/01/25 05:36:01;;;;;;;12.80;9.15;;;14.60;42.90;;;;;;5094932;27;45365;-67
2023/01/25 05:38:29;;;;;;;14.82;9.00;;;14.60;42.90;;;;;;5102548;27;45444;-66
2023/01/25 05:40:58;;;;;;;16.58;9.32;;;14.60;42.90;;;;;;5102744;27;47669;-66
2023/01/25 05:43:25;;;;;;;12.20;8.18;;;14.60;42.90;;;;;;5103132;27;45356;-66
2023/01/25 05:45:52;;;;;;;13.70;9.02;;;14.50;42.60;;;;;;5102738;27;45230;-65
2023/01/25 05:48:21;;;;;;;15.20;9.23;;;14.50;42.60;;;;;;5092445;27;45562;-66
2023/01/25 05:50:47;;;;;;;13.60;9.23;;;14.50;42.60;;;;;;5099633;27;48627;-66
2023/01/25 05:53:14;;;;;;;14.00;9.68;;;14.50;42.50;;;;;;5094797;27;45720;-66
2023/01/25 05:55:41;;;;;;;14.18;8.90;;;14.50;42.50;;;;;;5097260;27;45290;-66
2023/01/25 05:58:08;;;;;;;15.35;9.10;;;14.50;42.40;;;;;;5098451;27;45465;-66
2023/01/25 06:00:34;;;;;;;15.73;9.48;;;14.60;42.50;;;;;;5092883;27;47297;-66
2023/01/25 06:03:01;;;;;;;15.25;8.85;;;14.60;42.30;;;;;;5088950;27;45380;-66
2023/01/25 06:05:30;;;;;;;14.40;8.75;;;14.60;42.20;;;;;;5096636;27;45501;-66
2023/01/25 06:07:58;;;;;;;14.40;8.98;;;14.60;42.10;;;;;;5088243;27;45435;-65
2023/01/25 06:10:24;;;;;;;14.90;9.02;;;14.60;42.20;;;;;;5092043;27;45298;-66
2023/01/25 06:12:56;;;;;;;13.65;8.80;;;14.60;42.10;;;;;;5099742;27;45471;-66
2023/01/25 06:15:23;;;;;;;14.60;9.63;;;14.60;42.10;;;;;;5093257;27;45466;-66
2023/01/25 06:17:53;;;;;;;14.15;9.55;;;14.60;42.20;;;;;;5102851;27;45692;-66
2023/01/25 06:20:20;;;;;;;12.80;8.27;;;14.60;42.20;;;;;;5094698;27;45393;-66
2023/01/25 06:22:50;;;;;;;13.52;8.15;;;14.50;42.10;;;;;;5099440;27;45371;-66
2023/01/25 06:25:17;;;;;;;12.82;8.43;;;14.50;42.10;;;;;;5096193;27;45350;-66
2023/01/25 06:27:44;;;;;;;14.02;8.55;;;14.50;42.50;;;;;;5103050;27;45538;-65
2023/01/25 06:30:12;;;;;;;14.57;9.18;;;14.50;42.50;;;;;;5102299;27;46579;-67
2023/01/25 06:32:39;;;;;;;14.73;8.82;;;14.50;42.60;;;;;;5102595;27;45289;-66
2023/01/25 06:35:06;;;;;;;14.23;9.02;;;14.50;42.90;;;;;;5102639;27;45368;-66
2023/01/25 06:37:33;;;;;;;16.30;9.48;;;14.50;42.90;;;;;;5105644;27;45303;-66
2023/01/25 06:40:01;;;;;;;14.30;8.50;;;14.50;42.70;;;;;;5104261;27;45564;-65
2023/01/25 06:42:27;;;;;;;15.75;9.70;;;14.50;44.80;;;;;;5105712;27;45310;-66
2023/01/25 06:44:54;;;;;;;14.85;9.00;;;14.50;45.10;;;;;;5106508;27;45210;-66
2023/01/25 06:47:21;;;;;;;16.15;10.05;;;14.50;44.90;;;;;;5105932;27;45187;-65
2023/01/25 06:49:48;;;;;;;17.02;10.60;;;14.50;44.40;;;;;;5104430;27;47553;-66
2023/01/25 06:52:15;;;;;;;19.20;9.77;;;14.40;43.70;;;;;;5107956;27;45253;-66
2023/01/25 06:54:41;;;;;;;16.35;9.43;;;14.40;43.10;;;;;;5102422;27;45378;-66
2023/01/25 06:57:10;;;;;;;18.55;11.57;;;14.40;42.90;;;;;;5100785;27;45330;-66
2023/01/25 06:59:37;;;;;;;18.98;10.43;;;14.40;42.70;;;;;;5101770;27;45469;-66
2023/01/25 07:02:04;;;;;;;15.82;9.73;;;14.30;42.50;;;;;;5116023;27;45310;-66
2023/01/25 07:04:31;;;;;;;16.73;10.15;;;14.30;42.60;;;;;;5094787;27;45420;-65
2023/01/25 07:06:58;;;;;;;15.65;9.70;;;14.30;42.50;;;;;;5103181;27;45269;-66
2023/01/25 07:09:25;;;;;;;17.80;10.48;;;14.30;42.50;;;;;;5095861;27;47500;-66
2023/01/25 07:11:52;;;;;;;15.15;9.13;;;14.30;42.40;;;;;;5101670;27;45565;-67
2023/01/25 07:14:20;;;;;;;14.88;9.70;;;14.30;42.20;;;;;;5093589;27;45498;-66
2023/01/25 07:16:47;;;;;;;13.77;8.77;;;14.30;42.30;;;;;;5093877;27;45734;-66
2023/01/25 07:19:14;;;;;;;16.08;9.48;;;14.30;42.20;;;;;;5102253;27;46627;-66
2023/01/25 07:21:41;;;;;;;15.85;9.57;;;14.30;42.00;;;;;;5110343;27;45652;-66
2023/01/25 07:24:08;;;;;;;16.45;9.35;;;14.30;42.10;;;;;;5092218;27;45460;-65
2023/01/25 07:26:34;;;;;;;16.33;9.00;;;14.40;42.10;;;;;;5092053;27;45417;-66
2023/01/25 07:29:01;;;;;;;14.43;9.35;;;14.30;41.90;;;;;;5096093;27;47565;-65
2023/01/25 07:31:29;;;;;;;15.43;9.27;;;14.30;41.80;;;;;;5093187;27;45314;-66
2023/01/25 07:33:58;;;;;;;15.30;9.00;;;14.40;41.70;;;;;;5094070;27;45237;-65
2023/01/25 07:36:25;;;;;;;13.80;8.70;;;14.40;41.80;;;;;;5097798;27;45537;-66
2023/01/25 07:38:54;;;;;;;16.60;9.13;;;14.50;41.80;;;;;;5098933;27;47674;-67
2023/01/25 07:41:21;;;;;;;17.23;8.50;;;14.50;41.80;;;;;;5096429;27;45320;-66
2023/01/25 07:43:47;;;;;;;14.27;8.50;;;14.50;41.80;;;;;;5099144;27;45474;-66
2023/01/25 07:46:15;;;;;;;15.68;8.88;;;14.50;43.10;;;;;;5103797;27;45413;-66
2023/01/25 07:48:47;;;;;;;16.38;8.63;;;14.50;41.90;;;;;;5103420;27;47508;-66
2023/01/25 07:51:22;;;;;;;15.95;8.82;;;14.50;41.90;;;;;;5104716;27;45718;-66
2023/01/25 07:53:51;;;;;;;12.70;8.10;;;14.50;41.90;;;;;;5105383;27;45366;-66
2023/01/25 07:56:18;;;;;;;15.68;8.68;;;14.50;41.90;;;;;;5107517;27;45284;-65
2023/01/25 07:58:45;;;;;;;15.27;8.80;;;14.50;41.90;;;;;;5107856;27;47764;-66
2023/01/25 08:01:14;;;;;;;14.48;8.52;;;14.50;41.80;;;;;;5105350;27;45379;-66
2023/01/25 08:03:43;;;;;;;13.82;8.30;;;14.50;41.90;;;;;;5104346;27;45357;-66
2023/01/25 08:06:10;;;;;;;13.77;8.38;;;14.50;41.90;;;;;;5095209;27;45621;-66
2023/01/25 08:08:39;;;;;;;15.02;8.82;;;14.50;41.90;;;;;;5099731;27;47069;-66
2023/01/25 08:11:12;;;;;;;16.48;9.10;;;14.50;41.90;;;;;;5105745;27;45420;-66
2023/01/25 08:13:39;;;;;;;14.98;8.48;;;14.50;41.90;;;;;;5098855;27;45513;-66
2023/01/25 08:16:07;;;;;;;15.20;8.52;;;14.50;41.90;;;;;;5098325;27;45375;-66
2023/01/25 08:18:33;;;;;;;15.82;9.02;;;14.50;42.00;;;;;;5103438;27;47503;-66
2023/01/25 08:21:02;;;;;;;14.30;8.02;;;14.50;41.90;;;;;;5105043;27;45370;-66
2023/01/25 08:23:29;;;;;;;15.73;9.23;;;14.60;41.90;;;;;;5101675;27;45395;-66
2023/01/25 08:25:56;;;;;;;14.27;8.70;;;14.60;42.00;;;;;;5106201;27;45567;-66
2023/01/25 08:28:23;;;;;;;15.73;8.77;;;14.60;42.10;;;;;;5104032;27;46631;-66
2023/01/25 08:30:49;;;;;;;15.02;8.98;;;14.60;42.00;;;;;;5103706;27;45222;-67
2023/01/25 08:33:16;;;;;;;14.35;7.65;;;14.50;42.00;;;;;;5105654;27;45324;-66
2023/01/25 08:35:43;;;;;;;12.13;8.13;;;14.50;42.00;;;;;;5110041;27;45246;-66
2023/01/25 08:38:11;;;;;;;14.50;8.55;;;14.50;42.00;;;;;;5103812;27;46229;-66
2023/01/25 08:40:38;;;;;;;16.45;9.13;;;14.50;42.10;;;;;;5102758;27;45423;-65
2023/01/25 08:43:05;;;;;;;13.85;8.13;;;14.50;42.00;;;;;;5103515;27;45433;-65
2023/01/25 08:45:35;;;;;;;15.50;8.80;;;14.50;42.00;;;;;;5102378;27;45448;-65
2023/01/25 08:48:02;;;;;;;17.27;8.80;;;14.50;42.10;;;;;;5103119;27;45551;-66
2023/01/25 08:50:29;;;;;;;12.80;8.00;;;14.50;42.20;;;;;;5103681;27;45387;-66
2023/01/25 08:52:56;;;;;;;14.48;8.45;;;14.50;42.10;;;;;;5103478;27;45221;-66
2023/01/25 08:55:24;;;;;;;14.80;8.52;;;14.50;42.20;;;;;;5099082;27;45594;-66
2023/01/25 08:57:50;;;;;;;14.80;8.93;;;14.50;42.00;;;;;;5100136;27;45499;-66
2023/01/25 09:00:18;;;;;;;15.60;8.45;;;14.50;42.00;;;;;;5101390;27;45543;-66
2023/01/25 09:02:45;;;;;;;15.25;8.82;;;14.50;41.90;;;;;;5105745;27;45573;-66
2023/01/25 09:05:12;;;;;;;15.15;8.95;;;14.50;41.90;;;;;;5100576;27;45274;-66
2023/01/25 09:07:38;;;;;;;15.35;8.73;;;14.50;41.80;;;;;;5097081;27;47118;-66
2023/01/25 09:10:07;;;;;;;15.35;8.95;;;14.50;41.80;;;;;;5103492;27;45260;-65
2023/01/25 09:12:35;;;;;;;14.30;8.82;;;14.50;42.00;;;;;;5103416;27;45210;-65
2023/01/25 09:15:02;;;;;;;14.00;9.15;;;14.50;42.10;;;;;;5101192;27;45206;-65
2023/01/25 09:17:29;;;;;;;13.48;8.30;;;14.50;42.10;;;;;;5103113;27;46392;-66
2023/01/25 09:19:56;;;;;;;14.50;8.70;;;14.50;42.20;;;;;;5103048;27;45543;-66
2023/01/25 09:22:22;;;;;;;14.70;9.05;;;14.40;42.20;;;;;;5103532;27;45366;-65
2023/01/25 09:24:51;;;;;;;16.17;8.88;;;14.40;42.20;;;;;;5102475;27;45475;-65
2023/01/25 09:27:17;;;;;;;15.48;8.85;;;14.40;42.20;;;;;;5102380;27;45606;-66
2023/01/25 09:29:46;;;;;;;14.75;8.50;;;14.40;42.30;;;;;;5102781;27;45422;-65
2023/01/25 09:32:12;;;;;;;14.07;8.45;;;14.40;42.30;;;;;;5102358;27;45363;-66
2023/01/25 09:34:39;;;;;;;13.82;8.32;;;14.30;42.20;;;;;;5103604;27;45452;-66
2023/01/25 09:37:06;;;;;;;13.20;8.30;;;14.40;42.40;;;;;;5102191;27;45439;-66
2023/01/25 09:39:33;;;;;;;15.45;8.60;;;14.40;45.00;;;;;;5102583;27;45551;-65
2023/01/25 09:42:31;;;;;;;12.95;8.27;;;14.40;44.80;;;;;;5102888;27;45296;-66
2023/01/25 09:45:15;;;;;;;15.98;9.27;;;14.50;44.00;;;;;;5102968;27;45313;-66
2023/01/25 09:47:48;;;;;;;17.23;9.35;;;14.50;43.60;;;;;;5100835;27;46279;-66
2023/01/25 09:50:38;;;;;;;14.77;9.05;;;14.50;43.40;;;;;;5100137;27;45418;-66
2023/01/25 09:53:26;;;;;;;17.27;9.38;;;14.50;43.30;;;;;;5098452;27;45551;-67
2023/01/25 09:55:57;;;;;;;41.17;11.87;;;14.50;43.10;;;;;;5106269;27;45549;-65
2023/01/25 09:58:30;;;;;;;23.80;10.00;;;14.60;45.40;;;;;;5105690;27;45387;-64
2023/01/25 10:01:12;;;;;;;22.05;9.63;;;14.60;44.00;;;;;;5102649;27;45335;-65
2023/01/25 10:03:46;;;;;;;18.80;9.25;;;14.60;43.60;;;;;;5101532;27;45379;-65
2023/01/25 10:06:16;;;;;;;20.92;11.27;;;14.50;43.20;;;;;;5102595;27;45360;-65
2023/01/25 10:08:48;;;;;;;17.50;9.50;;;14.50;43.00;;;;;;5105842;27;47038;-65
2023/01/25 10:11:21;;;;;;;15.82;9.25;;;14.50;42.90;;;;;;5115012;27;45626;-65
2023/01/25 10:13:48;;;;;;;20.33;9.98;;;14.50;42.80;;;;;;5107561;27;45389;-65
2023/01/25 10:16:22;;;;;;;15.75;9.52;;;14.50;42.70;;;;;;5105795;27;45651;-65
2023/01/25 10:18:58;;;;;;;21.30;10.13;;;14.50;42.80;;;;;;5105820;27;47925;-65
2023/01/25 10:21:29;;;;;;;18.23;9.90;;;14.50;42.80;;;;;;5097035;27;45383;-65
2023/01/25 10:24:24;;;;;;;16.67;9.68;;;14.50;42.80;;;;;;5104704;27;45243;-65
2023/01/25 10:26:56;;;;;;;14.02;8.77;;;14.40;42.60;;;;;;5105779;27;45493;-66
2023/01/25 10:29:27;;;;;;;16.40;9.10;;;14.50;42.50;;;;;;5097908;27;46575;-65
2023/01/25 10:32:02;;;;;;;17.52;9.70;;;14.50;42.50;;;;;;5105973;27;45889;-65
2023/01/25 10:34:32;;;;;;;17.45;10.13;;;14.50;42.30;;;;;;5106118;27;45300;-65
2023/01/25 10:37:04;;;;;;;16.98;9.93;;;14.50;42.20;;;;;;5105699;27;45400;-65
2023/01/25 10:39:33;;;;;;;18.17;9.48;;;14.50;42.20;;;;;;5104545;27;46290;-65
2023/01/25 10:42:04;;;;;;;17.27;9.93;;;14.50;42.20;;;;;;5105920;27;45223;-65
2023/01/25 10:44:36;;;;;;;16.88;10.13;;;14.50;42.20;;;;;;5106518;27;45283;-65
2023/01/25 10:47:15;;;;;;;16.77;9.63;;;14.50;43.30;;;;;;5105253;27;45267;-66
2023/01/25 10:49:46;;;;;;;18.30;10.52;;;14.50;42.00;;;;;;5106971;27;45426;-65
2023/01/25 10:52:15;;;;;;;18.23;10.35;;;14.50;42.10;;;;;;5115530;27;45633;-66
2023/01/25 10:54:41;;;;;;;18.63;10.65;;;14.50;42.10;;;;;;5106029;27;45489;-65
2023/01/25 10:57:12;;;;;;;17.27;9.77;;;14.50;42.00;;;;;;5104416;27;45605;-65
2023/01/25 10:59:39;;;;;;;18.23;10.02;;;14.60;43.30;;;;;;5113484;27;45464;-65
2023/01/25 11:02:41;;;;;;;17.52;9.77;;;14.60;42.10;;;;;;5093927;27;45380;-66
2023/01/25 11:05:29;;;;;;;19.52;10.32;;;14.60;42.20;;;;;;5093223;27;45527;-66
2023/01/25 11:07:57;;;;;;;18.70;10.65;;;14.60;42.20;;;;;;5092949;27;45546;-65
2023/01/25 11:10:30;;;;;;;19.02;10.57;;;14.70;41.90;;;;;;5096708;27;45319;-65
2023/01/25 11:13:18;;;;;;;18.60;10.32;;;14.70;42.00;;;;;;5087938;27;45426;-65
2023/01/25 11:15:46;;;;;;;18.23;10.18;;;14.70;41.90;;;;;;5096934;27;45403;-65
2023/01/25 11:18:20;;;;;;;21.38;11.15;;;14.70;42.00;;;;;;5089774;27;45375;-65
2023/01/25 11:20:47;;;;;;;18.52;10.75;;;14.70;42.10;;;;;;5102571;27;45271;-65
2023/01/25 11:23:23;;;;;;;18.23;11.23;;;14.70;42.00;;;;;;5101051;27;45585;-65
2023/01/25 11:25:49;;;;;;;21.83;10.52;;;14.70;41.80;;;;;;5093410;27;45774;-65
2023/01/25 11:28:22;;;;;;;19.63;10.90;;;14.70;41.80;;;;;;5095795;27;45266;-66
2023/01/25 11:30:50;;;;;;;19.52;10.65;;;14.70;41.80;;;;;;5102339;27;45480;-67
2023/01/25 11:33:20;;;;;;;21.25;10.93;;;14.70;41.70;;;;;;5095681;27;45415;-65
2023/01/25 11:36:16;;;;;;;19.55;10.50;;;14.70;41.90;;;;;;5091241;27;45461;-65
2023/01/25 11:38:54;;;;;;;18.77;10.38;;;14.60;42.00;;;;;;5093414;27;45400;-65
2023/01/25 11:41:26;;;;;;;17.10;10.00;;;14.60;41.80;;;;;;5092198;27;46270;-66
2023/01/25 11:44:07;;;;;;;19.88;11.23;;;14.60;43.30;;;;;;5106513;27;45439;-64
2023/01/25 11:46:45;;;;;;;18.75;11.30;;;14.60;43.90;;;;;;5096090;27;45316;-65
2023/01/25 11:49:31;;;;;;;18.30;10.80;;;14.60;43.60;;;;;;5104002;27;45317;-65
2023/01/25 11:52:07;;;;;;;20.35;12.13;;;14.60;43.10;;;;;;5103071;27;46600;-65
2023/01/25 11:54:44;;;;;;;19.63;11.32;;;14.60;42.90;;;;;;5103124;27;45270;-65
2023/01/25 11:57:38;;;;;;;19.73;11.45;;;14.50;42.80;;;;;;5107838;27;45395;-65
2023/01/25 12:00:21;;;;;;;20.35;11.43;;;14.50;42.50;;;;;;5104765;27;45419;-65
2023/01/25 12:03:18;;;;;;;18.67;10.90;;;14.50;42.50;;;;;;5066405;27;1272161;-65
2023/01/25 12:05:56;;;;;;;20.98;11.38;;;14.50;42.30;;;;;;5104799;27;45605;-66
2023/01/25 12:08:59;;;;;;;20.58;11.30;;;14.50;42.20;;;;;;5110514;27;45447;-65
2023/01/25 12:11:39;;;;;;;17.95;11.23;;;14.50;42.00;;;;;;5096935;27;45341;-66
2023/01/25 12:14:16;;;;;;;19.30;11.32;;;14.50;41.80;;;;;;5100795;27;45262;-66
2023/01/25 12:17:00;;;;;;;21.42;11.68;;;14.50;41.80;;;;;;5096611;27;45355;-66
2023/01/25 12:19:39;;;;;;;21.58;12.35;;;14.60;41.90;;;;;;5100048;27;45402;-65
2023/01/25 12:22:33;;;;;;;33.60;11.55;;;14.60;42.60;;;;;;5104554;27;45472;-65
2023/01/25 12:25:07;;;;;;;22.35;11.02;;;14.70;44.20;;;;;;5101382;27;45453;-65
2023/01/25 12:27:47;;;;;;;27.40;12.45;;;14.70;42.90;;;;;;5104707;27;45484;-65
2023/01/25 12:30:20;;;;;;;23.10;11.70;;;14.70;42.60;;;;;;5114381;27;45517;-66
2023/01/25 12:32:53;;;;;;;20.75;11.02;;;14.60;42.30;;;;;;5105115;27;45277;-66
2023/01/25 12:35:28;;;;;;;20.73;11.63;;;14.60;42.40;;;;;;5100025;27;45328;-66
2023/01/25 12:38:03;;;;;;;21.40;12.05;;;14.50;42.10;;;;;;5106803;27;45317;-66
2023/01/25 12:40:41;;;;;;;19.13;11.93;;;14.50;42.20;;;;;;5101005;27;45720;-66
2023/01/25 12:43:15;;;;;;;18.20;11.32;;;14.50;42.10;;;;;;5102002;27;45558;-66
2023/01/25 12:45:46;;;;;;;21.40;12.15;;;14.50;41.90;;;;;;5097618;27;46082;-66
2023/01/25 12:48:18;;;;;;;23.02;12.48;;;14.50;41.90;;;;;;5102468;27;45341;-66
2023/01/25 12:50:50;;;;;;;22.00;11.95;;;14.50;41.80;;;;;;5096912;27;45294;-67
2023/01/25 12:53:23;;;;;;;21.27;11.80;;;14.50;42.00;;;;;;5105705;27;45403;-65